createdAt,value
2018-11-07T00:00:21.602Z,18.79
2018-11-07T00:01:21.551Z,18.75
2018-11-07T00:02:21.546Z,18.65
2018-11-07T00:03:21.534Z,18.79
2018-11-07T00:04:21.549Z,18.76
2018-11-07T00:05:21.533Z,18.79
2018-11-07T00:06:21.578Z,18.76
2018-11-07T00:07:21.508Z,18.82
2018-11-07T00:08:21.604Z,18.82
2018-11-07T00:09:21.483Z,18.82
2018-11-07T00:10:21.473Z,18.76
2018-11-07T00:11:21.465Z,18.86
2018-11-07T00:12:21.462Z,18.76
2018-11-07T00:13:21.466Z,18.89
2018-11-07T00:14:21.417Z,18.90
2018-11-07T00:15:21.435Z,18.91
2018-11-07T00:16:21.436Z,18.84
2018-11-07T00:17:21.396Z,18.89
2018-11-07T00:18:21.400Z,18.90
2018-11-07T00:19:21.440Z,18.89
2018-11-07T00:20:21.394Z,18.89
2018-11-07T00:21:21.638Z,18.84
2018-11-07T00:22:21.382Z,18.79
2018-11-07T00:23:21.391Z,18.83
2018-11-07T00:24:21.351Z,18.79
2018-11-07T00:25:21.323Z,18.83
2018-11-07T00:26:21.348Z,18.82
2018-11-07T00:27:21.297Z,18.78
2018-11-07T00:28:21.290Z,18.76
2018-11-07T00:29:21.292Z,18.74
2018-11-07T00:30:21.391Z,18.76
2018-11-07T00:31:21.287Z,18.82
2018-11-07T00:32:21.259Z,18.79
2018-11-07T00:33:21.251Z,18.79
2018-11-07T00:34:21.232Z,18.76
2018-11-07T00:35:21.227Z,18.76
2018-11-07T00:36:21.243Z,18.64
2018-11-07T00:37:21.224Z,18.71
2018-11-07T00:38:21.305Z,18.69
2018-11-07T00:39:21.201Z,18.68
2018-11-07T00:40:21.224Z,18.68
2018-11-07T00:41:21.184Z,18.76
2018-11-07T00:42:21.218Z,18.79
2018-11-07T00:43:21.132Z,18.72
2018-11-07T00:44:21.148Z,18.78
2018-11-07T00:45:21.186Z,18.75
2018-11-07T00:46:21.140Z,18.74
2018-11-07T00:47:21.125Z,18.89
2018-11-07T00:48:21.107Z,18.82
2018-11-07T00:49:21.210Z,18.84
2018-11-07T00:50:21.104Z,18.84
2018-11-07T00:51:21.081Z,18.83
2018-11-07T00:52:21.086Z,18.90
2018-11-07T00:53:21.080Z,18.89
2018-11-07T00:54:21.041Z,18.84
2018-11-07T00:55:21.029Z,18.86
2018-11-07T00:56:21.039Z,18.89
2018-11-07T00:57:21.016Z,18.90
2018-11-07T00:58:21.028Z,18.93
2018-11-07T00:59:21.007Z,18.89
2018-11-07T01:00:21.015Z,18.93
2018-11-07T01:01:21.003Z,18.91
2018-11-07T01:02:20.986Z,18.91
2018-11-07T01:03:20.950Z,18.99
2018-11-07T01:04:20.966Z,19.01
2018-11-07T01:05:20.946Z,18.96
2018-11-07T01:06:20.937Z,18.99
2018-11-07T01:07:20.939Z,18.94
2018-11-07T01:08:20.919Z,18.94
2018-11-07T01:09:20.937Z,18.94
2018-11-07T01:10:20.914Z,18.99
2018-11-07T01:11:20.915Z,18.97
2018-11-07T01:12:20.883Z,18.99
2018-11-07T01:13:20.895Z,19.01
2018-11-07T01:14:20.870Z,19.10
2018-11-07T01:15:20.853Z,19.09
2018-11-07T01:16:20.854Z,19.02
2018-11-07T01:17:20.844Z,18.94
2018-11-07T01:18:20.810Z,18.94
2018-11-07T01:19:20.822Z,18.96
2018-11-07T01:20:20.805Z,18.99
2018-11-07T01:21:20.788Z,19.05
2018-11-07T01:22:20.797Z,19.09
2018-11-07T01:23:20.775Z,19.07
2018-11-07T01:24:20.775Z,19.09
2018-11-07T01:25:20.761Z,19.09
2018-11-07T01:26:20.760Z,19.02
2018-11-07T01:27:20.751Z,19.12
2018-11-07T01:28:20.753Z,19.07
2018-11-07T01:29:20.717Z,19.10
2018-11-07T01:30:20.732Z,19.05
2018-11-07T01:31:20.702Z,19.06
2018-11-07T01:32:20.691Z,19.06
2018-11-07T01:33:20.678Z,19.06
2018-11-07T01:34:20.683Z,19.07
2018-11-07T01:35:20.670Z,19.06
2018-11-07T01:36:20.659Z,19.17
2018-11-07T01:37:20.659Z,19.10
2018-11-07T01:38:20.642Z,19.15
2018-11-07T01:39:20.629Z,19.12
2018-11-07T01:40:20.612Z,19.07
2018-11-07T01:41:20.631Z,19.12
2018-11-07T01:42:20.587Z,19.06
2018-11-07T01:43:20.639Z,19.06
2018-11-07T01:44:20.576Z,19.06
2018-11-07T01:45:20.584Z,19.13
2018-11-07T01:46:20.564Z,19.02
2018-11-07T01:47:20.571Z,19.06
2018-11-07T01:48:20.547Z,19.12
2018-11-07T01:49:20.540Z,19.07
2018-11-07T01:50:20.568Z,19.01
2018-11-07T01:51:20.520Z,18.93
2018-11-07T01:52:20.486Z,19.01
2018-11-07T01:53:20.557Z,18.96
2018-11-07T01:54:20.486Z,19.06
2018-11-07T01:55:20.485Z,18.97
2018-11-07T01:56:20.459Z,19.09
2018-11-07T01:57:20.442Z,19.10
2018-11-07T01:58:20.443Z,19.07
2018-11-07T01:59:20.446Z,19.09
2018-11-07T02:00:20.421Z,19.06
2018-11-07T02:01:20.427Z,19.16
2018-11-07T02:02:20.457Z,19.12
2018-11-07T02:03:20.396Z,19.16
2018-11-07T02:04:20.420Z,19.20
2018-11-07T02:05:20.402Z,19.15
2018-11-07T02:06:20.358Z,19.12
2018-11-07T02:07:20.453Z,19.01
2018-11-07T02:08:20.342Z,19.12
2018-11-07T02:09:20.359Z,19.10
2018-11-07T02:10:20.347Z,19.01
2018-11-07T02:11:20.319Z,19.06
2018-11-07T02:12:20.364Z,19.06
2018-11-07T02:13:20.293Z,19.07
2018-11-07T02:14:20.316Z,19.06
2018-11-07T02:15:20.273Z,19.10
2018-11-07T02:16:20.269Z,19.06
2018-11-07T02:17:20.310Z,19.09
2018-11-07T02:18:20.263Z,19.09
2018-11-07T02:19:20.258Z,19.07
2018-11-07T02:20:20.291Z,19.15
2018-11-07T02:21:20.257Z,19.07
2018-11-07T02:22:20.297Z,19.12
2018-11-07T02:23:20.213Z,19.05
2018-11-07T02:24:20.213Z,18.97
2018-11-07T02:25:20.209Z,18.99
2018-11-07T02:26:20.200Z,18.97
2018-11-07T02:27:20.231Z,19.09
2018-11-07T02:28:20.161Z,19.02
2018-11-07T02:29:20.136Z,18.99
2018-11-07T02:30:20.132Z,19.02
2018-11-07T02:31:20.129Z,19.15
2018-11-07T02:32:20.218Z,19.07
2018-11-07T02:33:20.134Z,19.05
2018-11-07T02:34:20.117Z,19.02
2018-11-07T02:35:20.114Z,19.02
2018-11-07T02:36:20.096Z,19.10
2018-11-07T02:37:20.087Z,19.12
2018-11-07T02:38:20.093Z,19.12
2018-11-07T02:39:20.063Z,19.23
2018-11-07T02:40:20.054Z,19.17
2018-11-07T02:41:20.077Z,19.23
2018-11-07T02:42:20.192Z,19.27
2018-11-07T02:43:20.025Z,19.27
2018-11-07T02:44:20.016Z,19.15
2018-11-07T02:45:19.992Z,19.17
2018-11-07T02:46:19.981Z,19.15
2018-11-07T02:47:19.972Z,19.21
2018-11-07T02:48:20.129Z,19.12
2018-11-07T02:49:19.973Z,19.15
2018-11-07T02:50:19.989Z,19.25
2018-11-07T02:51:19.942Z,19.25
2018-11-07T02:52:19.940Z,19.23
2018-11-07T02:53:19.948Z,19.25
2018-11-07T02:54:19.926Z,19.16
2018-11-07T02:55:19.964Z,19.17
2018-11-07T02:56:19.922Z,19.16
2018-11-07T02:57:19.906Z,19.17
2018-11-07T02:58:19.906Z,19.17
2018-11-07T02:59:19.869Z,19.20
2018-11-07T03:00:19.863Z,19.12
2018-11-07T03:01:19.968Z,19.17
2018-11-07T03:02:19.858Z,19.16
2018-11-07T03:03:19.846Z,19.27
2018-11-07T03:04:19.882Z,19.28
2018-11-07T03:05:19.794Z,19.23
2018-11-07T03:06:19.801Z,19.24
2018-11-07T03:07:19.795Z,19.24
2018-11-07T03:08:19.773Z,19.28
2018-11-07T03:09:19.875Z,19.30
2018-11-07T03:10:19.802Z,19.20
2018-11-07T03:11:19.775Z,19.16
2018-11-07T03:12:19.758Z,19.12
2018-11-07T03:13:19.755Z,19.17
2018-11-07T03:14:19.756Z,19.21
2018-11-07T03:15:19.729Z,19.17
2018-11-07T03:16:19.710Z,19.21
2018-11-07T03:17:19.703Z,19.27
2018-11-07T03:18:19.711Z,19.24
2018-11-07T03:19:19.730Z,19.16
2018-11-07T03:20:19.737Z,19.17
2018-11-07T03:21:19.680Z,19.15
2018-11-07T03:22:19.717Z,19.15
2018-11-07T03:23:19.652Z,19.16
2018-11-07T03:24:19.652Z,19.28
2018-11-07T03:25:19.776Z,19.17
2018-11-07T03:26:19.624Z,19.23
2018-11-07T03:27:19.633Z,19.24
2018-11-07T03:28:19.598Z,19.28
2018-11-07T03:29:19.603Z,19.24
2018-11-07T03:30:19.778Z,19.31
2018-11-07T03:31:19.596Z,19.30
2018-11-07T03:32:19.610Z,19.34
2018-11-07T03:33:19.557Z,19.35
2018-11-07T03:34:19.596Z,19.31
2018-11-07T03:35:19.700Z,19.30
2018-11-07T03:36:19.543Z,19.27
2018-11-07T03:37:19.531Z,19.35
2018-11-07T03:38:19.550Z,19.31
2018-11-07T03:39:19.492Z,19.35
2018-11-07T03:40:19.795Z,19.38
2018-11-07T03:41:19.473Z,19.45
2018-11-07T03:42:19.459Z,19.45
2018-11-07T03:43:19.465Z,19.40
2018-11-07T03:44:19.477Z,19.49
2018-11-07T03:45:19.535Z,19.53
2018-11-07T03:46:19.449Z,19.49
2018-11-07T03:47:19.440Z,19.35
2018-11-07T03:48:19.430Z,19.49
2018-11-07T03:49:19.424Z,19.50
2018-11-07T03:50:19.863Z,19.52
2018-11-07T03:51:19.399Z,19.43
2018-11-07T03:52:19.369Z,19.35
2018-11-07T03:53:19.441Z,19.45
2018-11-07T03:54:19.350Z,19.38
2018-11-07T03:55:21.070Z,19.45
2018-11-07T03:56:19.344Z,19.43
2018-11-07T03:57:19.340Z,19.42
2018-11-07T03:58:19.329Z,19.42
2018-11-07T03:59:19.333Z,19.45
2018-11-07T04:00:19.367Z,19.53
2018-11-07T04:01:19.368Z,19.45
2018-11-07T04:02:19.297Z,19.40
2018-11-07T04:03:19.273Z,19.50
2018-11-07T04:04:19.292Z,19.46
2018-11-07T04:05:19.274Z,19.50
2018-11-07T04:06:19.298Z,19.43
2018-11-07T04:07:19.261Z,19.47
2018-11-07T04:08:19.233Z,19.46
2018-11-07T04:09:19.219Z,19.47
2018-11-07T04:10:19.214Z,19.47
2018-11-07T04:11:19.294Z,19.49
2018-11-07T04:12:19.223Z,19.43
2018-11-07T04:13:19.294Z,19.43
2018-11-07T04:14:19.191Z,19.53
2018-11-07T04:15:19.178Z,19.49
2018-11-07T04:16:19.565Z,19.40
2018-11-07T04:17:19.178Z,19.47
2018-11-07T04:18:19.152Z,19.42
2018-11-07T04:19:19.119Z,19.42
2018-11-07T04:20:19.145Z,19.47
2018-11-07T04:21:19.121Z,19.38
2018-11-07T04:22:19.102Z,19.31
2018-11-07T04:23:19.104Z,19.40
2018-11-07T04:24:19.095Z,19.38
2018-11-07T04:25:19.134Z,19.34
2018-11-07T04:26:19.183Z,19.31
2018-11-07T04:27:19.065Z,19.35
2018-11-07T04:28:19.107Z,19.43
2018-11-07T04:29:19.048Z,19.39
2018-11-07T04:30:19.028Z,19.30
2018-11-07T04:31:19.031Z,19.31
2018-11-07T04:32:19.031Z,19.30
2018-11-07T04:33:19.065Z,19.34
2018-11-07T04:34:19.014Z,19.30
2018-11-07T04:35:18.987Z,19.28
2018-11-07T04:36:18.988Z,19.30
2018-11-07T04:37:18.963Z,19.25
2018-11-07T04:38:18.986Z,19.32
2018-11-07T04:39:19.062Z,19.31
2018-11-07T04:40:18.937Z,19.34
2018-11-07T04:41:18.937Z,19.34
2018-11-07T04:42:18.948Z,19.38
2018-11-07T04:43:18.911Z,19.31
2018-11-07T04:44:18.924Z,19.27
2018-11-07T04:45:18.896Z,19.30
2018-11-07T04:46:18.905Z,19.32
2018-11-07T04:47:18.970Z,19.32
2018-11-07T04:48:18.875Z,19.38
2018-11-07T04:49:18.864Z,19.31
2018-11-07T04:50:18.856Z,19.32
2018-11-07T04:51:18.846Z,19.45
2018-11-07T04:52:18.839Z,19.39
2018-11-07T04:53:18.829Z,19.45
2018-11-07T04:54:18.795Z,19.47
2018-11-07T04:55:18.821Z,19.43
2018-11-07T04:56:18.808Z,19.43
2018-11-07T04:57:18.778Z,19.46
2018-11-07T04:58:18.798Z,19.47
2018-11-07T04:59:18.755Z,19.43
2018-11-07T05:00:18.799Z,19.45
2018-11-07T05:01:18.797Z,19.32
2018-11-07T05:02:18.757Z,19.35
2018-11-07T05:03:18.750Z,19.32
2018-11-07T05:04:18.742Z,19.35
2018-11-07T05:05:18.728Z,19.35
2018-11-07T05:06:18.704Z,19.28
2018-11-07T05:07:18.753Z,19.25
2018-11-07T05:08:18.698Z,19.25
2018-11-07T05:09:18.704Z,19.20
2018-11-07T05:10:18.655Z,19.25
2018-11-07T05:11:18.658Z,19.21
2018-11-07T05:12:18.673Z,19.16
2018-11-07T05:13:18.658Z,19.24
2018-11-07T05:14:18.726Z,19.13
2018-11-07T05:15:18.615Z,19.25
2018-11-07T05:16:18.624Z,19.15
2018-11-07T05:17:18.616Z,19.15
2018-11-07T05:18:18.607Z,19.25
2018-11-07T05:19:18.583Z,19.34
2018-11-07T05:20:18.575Z,19.28
2018-11-07T05:21:18.566Z,19.34
2018-11-07T05:22:18.581Z,19.39
2018-11-07T05:23:18.595Z,19.34
2018-11-07T05:24:18.891Z,19.27
2018-11-07T05:25:18.550Z,19.32
2018-11-07T05:26:18.612Z,19.27
2018-11-07T05:27:18.529Z,19.20
2018-11-07T05:28:18.508Z,19.16
2018-11-07T05:29:18.585Z,19.15
2018-11-07T05:30:18.500Z,19.16
2018-11-07T05:31:18.466Z,19.17
2018-11-07T05:32:18.493Z,19.16
2018-11-07T05:33:18.469Z,19.13
2018-11-07T05:34:18.456Z,19.16
2018-11-07T05:35:18.463Z,19.07
2018-11-07T05:36:18.424Z,19.12
2018-11-07T05:37:18.434Z,19.15
2018-11-07T05:38:18.423Z,19.09
2018-11-07T05:39:18.505Z,19.24
2018-11-07T05:40:18.394Z,19.17
2018-11-07T05:41:18.426Z,19.16
2018-11-07T05:42:18.396Z,19.12
2018-11-07T05:43:18.380Z,19.09
2018-11-07T05:44:18.358Z,19.13
2018-11-07T05:45:18.344Z,19.15
2018-11-07T05:46:18.336Z,19.16
2018-11-07T05:47:18.371Z,19.15
2018-11-07T05:48:18.369Z,19.15
2018-11-07T05:49:18.318Z,19.13
2018-11-07T05:50:18.425Z,19.12
2018-11-07T05:51:18.299Z,19.12
2018-11-07T05:52:18.332Z,19.16
2018-11-07T05:53:18.282Z,19.17
2018-11-07T05:54:18.269Z,19.15
2018-11-07T05:55:18.269Z,19.17
2018-11-07T05:56:18.352Z,19.12
2018-11-07T05:57:18.289Z,19.12
2018-11-07T05:58:18.207Z,19.06
2018-11-07T05:59:18.215Z,19.06
2018-11-07T06:00:18.201Z,19.15
2018-11-07T06:01:18.187Z,19.13
2018-11-07T06:02:18.231Z,19.16
2018-11-07T06:03:18.190Z,19.16
2018-11-07T06:04:18.178Z,19.12
2018-11-07T06:05:18.211Z,19.06
2018-11-07T06:06:18.165Z,19.12
2018-11-07T06:07:18.265Z,19.06
2018-11-07T06:08:18.140Z,19.13
2018-11-07T06:09:18.142Z,19.09
2018-11-07T06:10:18.133Z,19.06
2018-11-07T06:11:18.144Z,19.09
2018-11-07T06:12:18.113Z,19.07
2018-11-07T06:13:18.105Z,19.07
2018-11-07T06:14:18.087Z,19.13
2018-11-07T06:15:18.114Z,19.09
2018-11-07T06:16:18.184Z,19.09
2018-11-07T06:17:18.154Z,19.09
2018-11-07T06:18:18.081Z,19.02
2018-11-07T06:19:18.047Z,19.07
2018-11-07T06:20:18.030Z,19.06
2018-11-07T06:21:18.046Z,19.06
2018-11-07T06:22:18.007Z,19.12
2018-11-07T06:23:18.033Z,19.06
2018-11-07T06:24:18.011Z,19.06
2018-11-07T06:25:17.977Z,19.06
2018-11-07T06:26:17.947Z,19.07
2018-11-07T06:27:17.972Z,19.15
2018-11-07T06:28:17.936Z,19.10
2018-11-07T06:29:17.947Z,19.06
2018-11-07T06:30:17.934Z,19.17
2018-11-07T06:31:17.899Z,19.05
2018-11-07T06:32:17.916Z,19.13
2018-11-07T06:33:18.203Z,19.15
2018-11-07T06:34:17.896Z,19.13
2018-11-07T06:35:17.869Z,19.16
2018-11-07T06:36:17.869Z,19.15
2018-11-07T06:37:17.858Z,19.15
2018-11-07T06:38:17.859Z,19.17
2018-11-07T06:39:17.838Z,19.21
2018-11-07T06:40:17.818Z,19.17
2018-11-07T06:41:17.818Z,19.15
2018-11-07T06:42:17.831Z,19.17
2018-11-07T06:43:17.804Z,19.13
2018-11-07T06:44:17.815Z,19.16
2018-11-07T06:45:17.805Z,19.15
2018-11-07T06:46:17.781Z,19.20
2018-11-07T06:47:17.779Z,19.15
2018-11-07T06:48:17.748Z,19.25
2018-11-07T06:49:17.768Z,19.30
2018-11-07T06:50:17.756Z,19.31
2018-11-07T06:51:17.736Z,19.34
2018-11-07T06:52:17.734Z,19.32
2018-11-07T06:53:17.746Z,19.32
2018-11-07T06:54:17.763Z,19.34
2018-11-07T06:55:17.693Z,19.39
2018-11-07T06:56:17.661Z,19.31
2018-11-07T06:57:17.676Z,19.35
2018-11-07T06:58:17.678Z,19.32
2018-11-07T06:59:17.914Z,19.32
2018-11-07T07:00:17.626Z,19.34
2018-11-07T07:01:17.706Z,19.40
2018-11-07T07:02:17.626Z,19.38
2018-11-07T07:03:17.663Z,19.28
2018-11-07T07:04:17.606Z,19.31
2018-11-07T07:05:17.594Z,19.32
2018-11-07T07:06:17.577Z,19.34
2018-11-07T07:07:17.574Z,19.30
2018-11-07T07:08:17.574Z,19.32
2018-11-07T07:09:17.872Z,19.35
2018-11-07T07:10:17.551Z,19.34
2018-11-07T07:11:17.531Z,19.27
2018-11-07T07:12:17.528Z,19.31
2018-11-07T07:13:17.554Z,19.30
2018-11-07T07:14:17.623Z,19.34
2018-11-07T07:15:17.511Z,19.35
2018-11-07T07:16:17.494Z,19.32
2018-11-07T07:17:17.537Z,19.28
2018-11-07T07:18:17.481Z,19.31
2018-11-07T07:19:17.481Z,19.31
2018-11-07T07:20:17.473Z,19.38
2018-11-07T07:21:17.444Z,19.35
2018-11-07T07:22:17.490Z,19.35
2018-11-07T07:23:17.444Z,19.39
2018-11-07T07:24:17.422Z,19.35
2018-11-07T07:25:17.531Z,19.34
2018-11-07T07:26:17.454Z,19.31
2018-11-07T07:27:17.391Z,19.31
2018-11-07T07:28:17.399Z,19.32
2018-11-07T07:29:17.376Z,19.30
2018-11-07T07:30:17.453Z,19.32
2018-11-07T07:31:17.369Z,19.35
2018-11-07T07:32:17.349Z,19.28
2018-11-07T07:33:17.390Z,19.34
2018-11-07T07:34:17.337Z,19.32
2018-11-07T07:35:17.321Z,19.34
2018-11-07T07:36:17.325Z,19.32
2018-11-07T07:37:17.311Z,19.32
2018-11-07T07:38:17.288Z,19.34
2018-11-07T07:39:17.272Z,19.38
2018-11-07T07:40:17.280Z,19.35
2018-11-07T07:41:17.418Z,19.31
2018-11-07T07:42:17.265Z,19.31
2018-11-07T07:43:17.302Z,19.39
2018-11-07T07:44:17.211Z,19.35
2018-11-07T07:45:17.234Z,19.38
2018-11-07T07:46:17.216Z,19.43
2018-11-07T07:47:17.296Z,19.32
2018-11-07T07:48:17.221Z,19.39
2018-11-07T07:49:17.220Z,19.34
2018-11-07T07:50:17.198Z,19.39
2018-11-07T07:51:17.177Z,19.30
2018-11-07T07:52:17.153Z,19.35
2018-11-07T07:53:17.209Z,19.34
2018-11-07T07:54:17.163Z,19.39
2018-11-07T07:55:17.140Z,19.34
2018-11-07T07:56:17.116Z,19.32
2018-11-07T07:57:17.107Z,19.39
2018-11-07T07:58:17.126Z,19.42
2018-11-07T07:59:17.117Z,19.38
2018-11-07T08:00:17.077Z,19.42
2018-11-07T08:01:17.097Z,19.35
2018-11-07T08:02:17.095Z,19.40
2018-11-07T08:03:17.068Z,19.47
2018-11-07T08:04:17.030Z,19.40
2018-11-07T08:05:17.091Z,19.30
2018-11-07T08:06:17.043Z,19.34
2018-11-07T08:07:17.069Z,19.39
2018-11-07T08:08:17.028Z,19.39
2018-11-07T08:09:17.004Z,19.42
2018-11-07T08:10:17.008Z,19.39
2018-11-07T08:11:17.025Z,19.46
2018-11-07T08:12:16.991Z,19.40
2018-11-07T08:13:16.975Z,19.43
2018-11-07T08:14:16.968Z,19.45
2018-11-07T08:15:16.962Z,19.47
2018-11-07T08:16:16.932Z,19.46
2018-11-07T08:17:16.942Z,19.43
2018-11-07T08:18:16.927Z,19.49
2018-11-07T08:19:17.023Z,19.43
2018-11-07T08:20:16.909Z,19.43
2018-11-07T08:21:16.898Z,19.52
2018-11-07T08:22:16.881Z,19.52
2018-11-07T08:23:16.872Z,19.49
2018-11-07T08:24:16.883Z,19.52
2018-11-07T08:25:16.856Z,19.50
2018-11-07T08:26:16.857Z,19.53
2018-11-07T08:27:16.820Z,19.52
2018-11-07T08:28:16.844Z,19.53
2018-11-07T08:29:16.885Z,19.53
2018-11-07T08:30:16.827Z,19.53
2018-11-07T08:31:16.825Z,19.53
2018-11-07T08:32:16.800Z,19.60
2018-11-07T08:33:16.777Z,19.50
2018-11-07T08:34:16.842Z,19.64
2018-11-07T08:35:16.804Z,19.61
2018-11-07T08:36:16.755Z,19.61
2018-11-07T08:37:16.776Z,19.62
2018-11-07T08:38:16.735Z,19.62
2018-11-07T08:39:16.782Z,19.65
2018-11-07T08:40:16.705Z,19.62
2018-11-07T08:41:16.730Z,19.67
2018-11-07T08:42:16.784Z,19.64
2018-11-07T08:43:16.704Z,19.65
2018-11-07T08:44:16.710Z,19.71
2018-11-07T08:45:16.680Z,19.62
2018-11-07T08:46:16.680Z,19.67
2018-11-07T08:47:16.669Z,19.65
2018-11-07T08:48:16.687Z,19.58
2018-11-07T08:49:16.626Z,19.61
2018-11-07T08:50:16.660Z,19.67
2018-11-07T08:51:16.641Z,19.57
2018-11-07T08:52:16.607Z,19.61
2018-11-07T08:53:16.615Z,19.55
2018-11-07T08:54:16.601Z,19.61
2018-11-07T08:55:16.644Z,19.61
2018-11-07T08:56:16.593Z,19.62
2018-11-07T08:57:16.579Z,19.65
2018-11-07T08:58:16.570Z,19.61
2018-11-07T08:59:16.553Z,19.65
2018-11-07T09:00:16.544Z,19.65
2018-11-07T09:01:16.588Z,19.61
2018-11-07T09:02:16.551Z,19.67
2018-11-07T09:03:16.544Z,19.65
2018-11-07T09:04:16.493Z,19.75
2018-11-07T09:05:16.528Z,19.61
2018-11-07T09:06:16.522Z,19.65
2018-11-07T09:07:16.503Z,19.75
2018-11-07T09:08:16.480Z,19.62
2018-11-07T09:09:16.463Z,19.67
2018-11-07T09:10:16.444Z,19.67
2018-11-07T09:11:16.459Z,19.75
2018-11-07T09:12:16.595Z,19.76
2018-11-07T09:13:16.476Z,19.65
2018-11-07T09:14:16.423Z,19.75
2018-11-07T09:15:16.422Z,19.79
2018-11-07T09:16:16.484Z,19.72
2018-11-07T09:17:16.454Z,19.75
2018-11-07T09:18:16.390Z,19.70
2018-11-07T09:19:16.391Z,19.76
2018-11-07T09:20:16.382Z,19.82
2018-11-07T09:21:16.362Z,19.79
2018-11-07T09:22:16.350Z,19.78
2018-11-07T09:23:16.320Z,19.82
2018-11-07T09:24:16.360Z,19.83
2018-11-07T09:25:16.326Z,19.82
2018-11-07T09:26:16.313Z,19.80
2018-11-07T09:27:16.413Z,19.92
2018-11-07T09:28:16.313Z,19.85
2018-11-07T09:29:16.336Z,19.92
2018-11-07T09:30:16.283Z,19.92
2018-11-07T09:31:16.270Z,19.92
2018-11-07T09:32:16.275Z,19.98
2018-11-07T09:33:16.241Z,19.90
2018-11-07T09:34:16.297Z,20.02
2018-11-07T09:35:16.236Z,20.04
2018-11-07T09:36:16.226Z,20.05
2018-11-07T09:37:16.238Z,20.10
2018-11-07T09:38:16.310Z,20.04
2018-11-07T09:39:16.180Z,20.13
2018-11-07T09:40:16.168Z,20.04
2018-11-07T09:41:16.182Z,20.08
2018-11-07T09:42:16.178Z,20.13
2018-11-07T09:43:16.189Z,20.00
2018-11-07T09:44:16.174Z,20.10
2018-11-07T09:45:16.140Z,20.13
2018-11-07T09:46:16.142Z,20.10
2018-11-07T09:47:16.135Z,20.16
2018-11-07T09:48:16.152Z,20.13
2018-11-07T09:49:16.216Z,20.12
2018-11-07T09:50:16.123Z,20.10
2018-11-07T09:51:16.117Z,20.12
2018-11-07T09:52:16.067Z,20.10
2018-11-07T09:53:16.097Z,20.16
2018-11-07T09:54:16.081Z,20.12
2018-11-07T09:55:16.140Z,20.17
2018-11-07T09:56:16.028Z,20.22
2018-11-07T09:57:16.041Z,20.22
2018-11-07T09:58:16.045Z,20.19
2018-11-07T09:59:16.065Z,20.22
2018-11-07T10:00:16.054Z,20.19
2018-11-07T10:01:16.083Z,20.17
2018-11-07T10:02:16.007Z,20.30
2018-11-07T10:03:15.994Z,20.15
2018-11-07T10:04:16.006Z,20.26
2018-11-07T10:05:15.994Z,20.26
2018-11-07T10:06:15.973Z,20.22
2018-11-07T10:07:16.042Z,20.17
2018-11-07T10:08:15.954Z,20.25
2018-11-07T10:09:15.943Z,20.17
2018-11-07T10:10:15.924Z,20.33
2018-11-07T10:11:15.921Z,20.31
2018-11-07T10:12:15.908Z,20.26
2018-11-07T10:13:15.900Z,20.23
2018-11-07T10:14:15.910Z,20.25
2018-11-07T10:15:15.894Z,20.16
2018-11-07T10:16:15.899Z,20.22
2018-11-07T10:17:15.867Z,20.17
2018-11-07T10:18:15.882Z,20.20
2018-11-07T10:19:15.853Z,20.26
2018-11-07T10:20:15.843Z,20.25
2018-11-07T10:21:15.825Z,20.25
2018-11-07T10:22:15.823Z,20.23
2018-11-07T10:23:15.819Z,20.23
2018-11-07T10:24:15.813Z,20.25
2018-11-07T10:25:15.800Z,20.27
2018-11-07T10:26:15.806Z,20.26
2018-11-07T10:27:15.987Z,20.30
2018-11-07T10:28:15.882Z,20.27
2018-11-07T10:29:16.169Z,20.37
2018-11-07T10:30:15.949Z,20.42
2018-11-07T10:31:15.756Z,20.41
2018-11-07T10:32:15.744Z,20.44
2018-11-07T10:33:15.720Z,20.35
2018-11-07T10:34:15.714Z,20.38
2018-11-07T10:35:15.721Z,20.48
2018-11-07T10:36:15.716Z,20.51
2018-11-07T10:37:15.696Z,20.50
2018-11-07T10:38:15.751Z,20.50
2018-11-07T10:39:15.678Z,20.56
2018-11-07T10:40:15.770Z,20.54
2018-11-07T10:41:15.661Z,20.54
2018-11-07T10:42:15.649Z,20.57
2018-11-07T10:43:15.662Z,20.54
2018-11-07T10:44:15.705Z,20.61
2018-11-07T10:45:15.630Z,20.66
2018-11-07T10:46:15.617Z,20.56
2018-11-07T10:47:15.619Z,20.66
2018-11-07T10:48:15.599Z,20.63
2018-11-07T10:49:15.601Z,20.64
2018-11-07T10:50:15.577Z,20.69
2018-11-07T10:51:15.818Z,20.69
2018-11-07T10:52:15.591Z,20.79
2018-11-07T10:53:15.565Z,20.83
2018-11-07T10:54:15.552Z,20.90
2018-11-07T10:55:15.603Z,20.85
2018-11-07T10:56:15.645Z,20.88
2018-11-07T10:57:15.983Z,21.00
2018-11-07T10:58:15.536Z,21.01
2018-11-07T10:59:15.508Z,21.01
2018-11-07T11:00:15.524Z,21.03
2018-11-07T11:01:15.513Z,21.06
2018-11-07T11:02:15.595Z,20.90
2018-11-07T11:03:15.496Z,20.90
2018-11-07T11:04:15.479Z,20.93
2018-11-07T11:05:15.499Z,20.90
2018-11-07T11:06:15.474Z,20.91
2018-11-07T11:07:15.472Z,20.91
2018-11-07T11:08:15.443Z,21.08
2018-11-07T11:09:15.448Z,21.00
2018-11-07T11:10:15.465Z,21.03
2018-11-07T11:11:15.502Z,21.09
2018-11-07T11:12:15.503Z,21.09
2018-11-07T11:13:15.440Z,21.06
2018-11-07T11:14:15.423Z,21.06
2018-11-07T11:15:15.391Z,21.09
2018-11-07T11:16:15.388Z,21.01
2018-11-07T11:17:15.390Z,21.11
2018-11-07T11:18:15.375Z,21.15
2018-11-07T11:19:15.356Z,21.16
2018-11-07T11:20:15.398Z,21.16
2018-11-07T11:21:15.385Z,21.16
2018-11-07T11:22:15.405Z,21.19
2018-11-07T11:23:15.323Z,21.19
2018-11-07T11:24:15.325Z,21.21
2018-11-07T11:25:15.351Z,21.21
2018-11-07T11:26:15.299Z,21.19
2018-11-07T11:27:15.387Z,21.24
2018-11-07T11:28:15.299Z,21.19
2018-11-07T11:29:15.284Z,21.21
2018-11-07T11:30:15.284Z,21.34
2018-11-07T11:31:15.284Z,21.21
2018-11-07T11:32:15.255Z,21.16
2018-11-07T11:33:15.259Z,21.31
2018-11-07T11:34:15.427Z,21.24
2018-11-07T11:35:15.393Z,21.28
2018-11-07T11:36:15.283Z,21.28
2018-11-07T11:37:15.224Z,21.30
2018-11-07T11:38:15.214Z,21.33
2018-11-07T11:39:15.201Z,21.28
2018-11-07T11:40:15.244Z,21.33
2018-11-07T11:41:15.271Z,21.34
2018-11-07T11:42:15.178Z,21.40
2018-11-07T11:43:15.176Z,21.19
2018-11-07T11:44:15.183Z,21.27
2018-11-07T11:45:15.139Z,21.31
2018-11-07T11:46:15.340Z,21.30
2018-11-07T11:47:15.140Z,21.30
2018-11-07T11:48:15.129Z,21.31
2018-11-07T11:49:15.154Z,21.31
2018-11-07T11:50:15.150Z,21.34
2018-11-07T11:51:15.138Z,21.30
2018-11-07T11:52:15.132Z,21.28
2018-11-07T11:53:15.209Z,21.31
2018-11-07T11:54:15.073Z,21.30
2018-11-07T11:55:15.065Z,21.34
2018-11-07T11:56:15.064Z,21.31
2018-11-07T11:57:15.058Z,21.33
2018-11-07T11:58:15.051Z,21.26
2018-11-07T11:59:15.108Z,21.36
2018-11-07T12:00:15.123Z,21.28
2018-11-07T12:01:15.019Z,21.31
2018-11-07T12:02:15.097Z,21.43
2018-11-07T12:03:15.014Z,21.38
2018-11-07T12:04:15.107Z,21.46
2018-11-07T12:05:14.994Z,21.42
2018-11-07T12:06:15.007Z,21.45
2018-11-07T12:07:14.967Z,21.42
2018-11-07T12:08:14.995Z,21.43
2018-11-07T12:09:14.945Z,21.37
2018-11-07T12:10:15.040Z,21.37
2018-11-07T12:11:14.927Z,21.40
2018-11-07T12:12:14.945Z,21.37
2018-11-07T12:13:14.942Z,21.36
2018-11-07T12:14:14.914Z,21.43
2018-11-07T12:15:14.976Z,21.45
2018-11-07T12:16:14.916Z,21.49
2018-11-07T12:17:14.902Z,21.51
2018-11-07T12:18:14.898Z,21.53
2018-11-07T12:19:14.876Z,21.64
2018-11-07T12:20:14.861Z,21.56
2018-11-07T12:21:15.185Z,21.63
2018-11-07T12:22:14.865Z,21.75
2018-11-07T12:23:14.905Z,21.73
2018-11-07T12:24:14.846Z,21.74
2018-11-07T12:25:14.847Z,21.75
2018-11-07T12:26:14.824Z,21.68
2018-11-07T12:27:14.921Z,21.63
2018-11-07T12:28:14.801Z,21.66
2018-11-07T12:29:14.802Z,21.67
2018-11-07T12:30:14.809Z,21.63
2018-11-07T12:31:14.791Z,21.61
2018-11-07T12:32:14.809Z,21.68
2018-11-07T12:33:14.803Z,21.71
2018-11-07T12:34:14.789Z,21.75
2018-11-07T12:35:14.744Z,21.79
2018-11-07T12:36:14.800Z,21.77
2018-11-07T12:37:14.854Z,21.91
2018-11-07T12:38:14.749Z,21.96
2018-11-07T12:39:14.773Z,21.89
2018-11-07T12:40:14.744Z,21.94
2018-11-07T12:41:14.717Z,22.06
2018-11-07T12:42:14.759Z,22.15
2018-11-07T12:43:14.727Z,22.09
2018-11-07T12:44:14.705Z,22.14
2018-11-07T12:45:14.701Z,22.15
2018-11-07T12:46:14.696Z,22.12
2018-11-07T12:47:14.781Z,22.14
2018-11-07T12:48:14.688Z,22.24
2018-11-07T12:49:15.809Z,22.41
2018-11-07T12:50:14.726Z,22.33
2018-11-07T12:51:14.651Z,22.36
2018-11-07T12:52:14.666Z,22.44